sensor_id;sensor_type;location;lat;lon;timestamp;temperature;humidity
51273;DHT22;37345;59.828;30.328;2022-07-23T00:01:34;21.00;99.90
51273;DHT22;37345;59.828;30.328;2022-07-23T00:04:01;20.90;99.90
51273;DHT22;37345;59.828;30.328;2022-07-23T00:06:26;20.80;99.90
51273;DHT22;37345;59.828;30.328;2022-07-23T00:08:53;20.70;99.90
51273;DHT22;37345;59.828;30.328;2022-07-23T00:11:18;20.80;99.90
51273;DHT22;37345;59.828;30.328;2022-07-23T00:13:45;20.90;99.90
51273;DHT22;37345;59.828;30.328;2022-07-23T00:16:11;20.90;99.90
51273;DHT22;37345;59.828;30.328;2022-07-23T00:18:36;20.90;99.90
51273;DHT22;37345;59.828;30.328;2022-07-23T00:21:03;20.90;99.90
51273;DHT22;37345;59.828;30.328;2022-07-23T00:23:29;20.80;99.90
51273;DHT22;37345;59.828;30.328;2022-07-23T00:25:56;20.80;99.90
51273;DHT22;37345;59.828;30.328;2022-07-23T00:28:22;20.80;99.90
51273;DHT22;37345;59.828;30.328;2022-07-23T00:30:48;20.90;99.90
51273;DHT22;37345;59.828;30.328;2022-07-23T00:33:13;20.90;99.90
51273;DHT22;37345;59.828;30.328;2022-07-23T00:35:40;21.00;99.90
51273;DHT22;37345;59.828;30.328;2022-07-23T00:38:08;21.00;99.90
51273;DHT22;37345;59.828;30.328;2022-07-23T00:40:35;20.80;99.90
51273;DHT22;37345;59.828;30.328;2022-07-23T00:43:02;20.90;99.90
51273;DHT22;37345;59.828;30.328;2022-07-23T00:45:29;20.80;99.90
51273;DHT22;37345;59.828;30.328;2022-07-23T00:47:55;20.70;99.90
51273;DHT22;37345;59.828;30.328;2022-07-23T00:50:21;20.80;99.90
51273;DHT22;37345;59.828;30.328;2022-07-23T00:52:47;20.90;99.90
51273;DHT22;37345;59.828;30.328;2022-07-23T00:55:13;20.60;99.90
51273;DHT22;37345;59.828;30.328;2022-07-23T00:57:40;20.40;99.90
51273;DHT22;37345;59.828;30.328;2022-07-23T01:00:09;20.70;99.90
51273;DHT22;37345;59.828;30.328;2022-07-23T01:02:37;20.90;99.90
51273;DHT22;37345;59.828;30.328;2022-07-23T01:05:03;20.80;99.90
51273;DHT22;37345;59.828;30.328;2022-07-23T01:07:29;20.70;99.90
51273;DHT22;37345;59.828;30.328;2022-07-23T01:09:54;21.00;99.90
51273;DHT22;37345;59.828;30.328;2022-07-23T01:12:20;20.80;99.90
51273;DHT22;37345;59.828;30.328;2022-07-23T01:14:57;21.00;99.90
51273;DHT22;37345;59.828;30.328;2022-07-23T01:17:23;20.90;99.90
51273;DHT22;37345;59.828;30.328;2022-07-23T01:19:49;20.80;99.90
51273;DHT22;37345;59.828;30.328;2022-07-23T01:22:17;21.10;99.90
51273;DHT22;37345;59.828;30.328;2022-07-23T01:24:44;20.90;99.90
51273;DHT22;37345;59.828;30.328;2022-07-23T01:27:09;20.90;99.90
51273;DHT22;37345;59.828;30.328;2022-07-23T01:29:35;20.90;99.90
51273;DHT22;37345;59.828;30.328;2022-07-23T01:32:01;21.00;99.90
51273;DHT22;37345;59.828;30.328;2022-07-23T01:34:27;20.00;99.90
51273;DHT22;37345;59.828;30.328;2022-07-23T01:36:52;20.80;99.90
51273;DHT22;37345;59.828;30.328;2022-07-23T01:39:18;20.80;99.90
51273;DHT22;37345;59.828;30.328;2022-07-23T01:44:10;21.00;99.90
51273;DHT22;37345;59.828;30.328;2022-07-23T01:46:37;20.10;99.90
51273;DHT22;37345;59.828;30.328;2022-07-23T01:49:03;21.40;99.90
51273;DHT22;37345;59.828;30.328;2022-07-23T01:51:29;21.10;99.90
51273;DHT22;37345;59.828;30.328;2022-07-23T01:53:55;20.90;99.90
51273;DHT22;37345;59.828;30.328;2022-07-23T01:56:20;21.40;99.90
51273;DHT22;37345;59.828;30.328;2022-07-23T01:58:48;21.40;99.90
51273;DHT22;37345;59.828;30.328;2022-07-23T02:01:14;21.90;99.90
51273;DHT22;37345;59.828;30.328;2022-07-23T02:03:39;21.80;99.90
51273;DHT22;37345;59.828;30.328;2022-07-23T02:06:05;22.20;99.90
51273;DHT22;37345;59.828;30.328;2022-07-23T02:08:31;22.40;99.90
51273;DHT22;37345;59.828;30.328;2022-07-23T02:10:57;22.40;99.90
51273;DHT22;37345;59.828;30.328;2022-07-23T02:13:23;22.30;99.90
51273;DHT22;37345;59.828;30.328;2022-07-23T02:15:48;22.70;99.90
51273;DHT22;37345;59.828;30.328;2022-07-23T02:18:15;22.60;99.90
51273;DHT22;37345;59.828;30.328;2022-07-23T02:20:41;22.70;99.90
51273;DHT22;37345;59.828;30.328;2022-07-23T02:23:07;23.00;99.90
51273;DHT22;37345;59.828;30.328;2022-07-23T02:25:33;23.60;99.90
51273;DHT22;37345;59.828;30.328;2022-07-23T02:27:59;23.10;99.90
51273;DHT22;37345;59.828;30.328;2022-07-23T02:30:26;23.30;99.90
51273;DHT22;37345;59.828;30.328;2022-07-23T02:32:52;23.60;99.90
51273;DHT22;37345;59.828;30.328;2022-07-23T02:35:17;23.70;99.90
51273;DHT22;37345;59.828;30.328;2022-07-23T02:37:43;23.80;99.90
51273;DHT22;37345;59.828;30.328;2022-07-23T02:40:09;23.70;99.90
51273;DHT22;37345;59.828;30.328;2022-07-23T02:42:35;24.10;99.90
51273;DHT22;37345;59.828;30.328;2022-07-23T02:45:01;24.30;99.90
51273;DHT22;37345;59.828;30.328;2022-07-23T02:47:27;24.60;99.90
51273;DHT22;37345;59.828;30.328;2022-07-23T02:49:53;23.90;99.90
51273;DHT22;37345;59.828;30.328;2022-07-23T02:52:18;24.60;99.90
51273;DHT22;37345;59.828;30.328;2022-07-23T02:54:44;24.90;99.90
51273;DHT22;37345;59.828;30.328;2022-07-23T02:57:10;25.20;99.90
51273;DHT22;37345;59.828;30.328;2022-07-23T02:59:36;25.10;99.90
51273;DHT22;37345;59.828;30.328;2022-07-23T03:02:02;24.80;99.90
51273;DHT22;37345;59.828;30.328;2022-07-23T03:04:27;25.20;99.90
51273;DHT22;37345;59.828;30.328;2022-07-23T03:06:53;25.60;99.90
51273;DHT22;37345;59.828;30.328;2022-07-23T03:09:19;25.90;99.90
51273;DHT22;37345;59.828;30.328;2022-07-23T03:11:45;26.00;99.90
51273;DHT22;37345;59.828;30.328;2022-07-23T03:14:59;25.80;99.90
51273;DHT22;37345;59.828;30.328;2022-07-23T03:17:25;25.90;99.90
51273;DHT22;37345;59.828;30.328;2022-07-23T03:19:54;26.10;99.90
51273;DHT22;37345;59.828;30.328;2022-07-23T03:22:20;26.10;99.90
51273;DHT22;37345;59.828;30.328;2022-07-23T03:24:45;26.10;99.90
51273;DHT22;37345;59.828;30.328;2022-07-23T03:27:21;26.00;99.90
51273;DHT22;37345;59.828;30.328;2022-07-23T03:29:48;26.00;99.90
51273;DHT22;37345;59.828;30.328;2022-07-23T03:32:14;26.40;99.90
51273;DHT22;37345;59.828;30.328;2022-07-23T03:34:40;26.60;99.90
51273;DHT22;37345;59.828;30.328;2022-07-23T03:37:06;26.50;99.90
51273;DHT22;37345;59.828;30.328;2022-07-23T03:39:31;26.70;99.90
51273;DHT22;37345;59.828;30.328;2022-07-23T03:41:57;26.60;99.90
51273;DHT22;37345;59.828;30.328;2022-07-23T03:44:23;26.80;99.90
51273;DHT22;37345;59.828;30.328;2022-07-23T03:46:49;27.10;99.90
51273;DHT22;37345;59.828;30.328;2022-07-23T03:49:15;26.90;99.90
51273;DHT22;37345;59.828;30.328;2022-07-23T03:51:41;26.90;99.90
51273;DHT22;37345;59.828;30.328;2022-07-23T03:54:07;26.50;99.90
51273;DHT22;37345;59.828;30.328;2022-07-23T03:56:32;26.60;99.90
51273;DHT22;37345;59.828;30.328;2022-07-23T03:58:58;26.70;99.90
51273;DHT22;37345;59.828;30.328;2022-07-23T04:01:24;26.40;99.90
51273;DHT22;37345;59.828;30.328;2022-07-23T04:03:50;26.20;99.90
51273;DHT22;37345;59.828;30.328;2022-07-23T04:06:16;25.90;99.90
51273;DHT22;37345;59.828;30.328;2022-07-23T04:08:41;26.80;99.90
51273;DHT22;37345;59.828;30.328;2022-07-23T04:11:07;26.70;99.90
51273;DHT22;37345;59.828;30.328;2022-07-23T04:13:33;26.70;99.90
51273;DHT22;37345;59.828;30.328;2022-07-23T04:15:59;26.20;99.90
51273;DHT22;37345;59.828;30.328;2022-07-23T04:18:24;26.30;99.90
51273;DHT22;37345;59.828;30.328;2022-07-23T04:20:51;26.40;99.90
51273;DHT22;37345;59.828;30.328;2022-07-23T04:23:17;26.10;99.90
51273;DHT22;37345;59.828;30.328;2022-07-23T04:25:43;26.50;99.90
51273;DHT22;37345;59.828;30.328;2022-07-23T04:28:08;26.30;99.90
51273;DHT22;37345;59.828;30.328;2022-07-23T04:30:34;26.50;99.90
51273;DHT22;37345;59.828;30.328;2022-07-23T04:33:00;26.40;99.90
51273;DHT22;37345;59.828;30.328;2022-07-23T04:35:26;27.00;99.90
51273;DHT22;37345;59.828;30.328;2022-07-23T04:37:52;26.30;99.90
51273;DHT22;37345;59.828;30.328;2022-07-23T04:40:18;26.80;99.90
51273;DHT22;37345;59.828;30.328;2022-07-23T04:42:44;26.60;99.90
51273;DHT22;37345;59.828;30.328;2022-07-23T04:45:10;26.80;99.90
51273;DHT22;37345;59.828;30.328;2022-07-23T04:47:38;26.80;99.90
51273;DHT22;37345;59.828;30.328;2022-07-23T04:50:04;28.20;99.90
51273;DHT22;37345;59.828;30.328;2022-07-23T04:52:30;27.00;99.90
51273;DHT22;37345;59.828;30.328;2022-07-23T04:54:56;27.20;99.90
51273;DHT22;37345;59.828;30.328;2022-07-23T04:57:22;26.90;99.90
51273;DHT22;37345;59.828;30.328;2022-07-23T04:59:47;27.40;99.90
51273;DHT22;37345;59.828;30.328;2022-07-23T05:02:13;28.10;99.90
51273;DHT22;37345;59.828;30.328;2022-07-23T05:04:39;28.20;99.90
51273;DHT22;37345;59.828;30.328;2022-07-23T05:07:05;27.90;99.90
51273;DHT22;37345;59.828;30.328;2022-07-23T05:09:31;28.20;99.90
51273;DHT22;37345;59.828;30.328;2022-07-23T05:11:57;28.60;99.90
51273;DHT22;37345;59.828;30.328;2022-07-23T05:14:23;28.30;99.90
51273;DHT22;37345;59.828;30.328;2022-07-23T05:16:49;28.50;99.90
51273;DHT22;37345;59.828;30.328;2022-07-23T05:19:15;29.10;99.90
51273;DHT22;37345;59.828;30.328;2022-07-23T05:21:40;28.30;99.90
51273;DHT22;37345;59.828;30.328;2022-07-23T05:24:06;28.20;99.90
51273;DHT22;37345;59.828;30.328;2022-07-23T05:26:32;28.30;99.90
51273;DHT22;37345;59.828;30.328;2022-07-23T05:31:30;28.40;99.90
51273;DHT22;37345;59.828;30.328;2022-07-23T05:33:56;28.70;99.90
51273;DHT22;37345;59.828;30.328;2022-07-23T05:36:22;28.70;99.90
51273;DHT22;37345;59.828;30.328;2022-07-23T05:38:48;29.40;99.90
51273;DHT22;37345;59.828;30.328;2022-07-23T05:41:13;29.00;99.90
51273;DHT22;37345;59.828;30.328;2022-07-23T05:43:39;29.30;99.90
51273;DHT22;37345;59.828;30.328;2022-07-23T05:46:05;28.90;99.90
51273;DHT22;37345;59.828;30.328;2022-07-23T05:48:31;29.20;99.90
51273;DHT22;37345;59.828;30.328;2022-07-23T05:50:57;29.70;99.90
51273;DHT22;37345;59.828;30.328;2022-07-23T05:53:23;29.70;99.90
51273;DHT22;37345;59.828;30.328;2022-07-23T05:55:49;29.90;99.90
51273;DHT22;37345;59.828;30.328;2022-07-23T05:58:15;30.20;99.90
51273;DHT22;37345;59.828;30.328;2022-07-23T06:00:41;30.30;99.90
51273;DHT22;37345;59.828;30.328;2022-07-23T06:03:07;30.00;99.90
51273;DHT22;37345;59.828;30.328;2022-07-23T06:05:33;30.10;99.90
51273;DHT22;37345;59.828;30.328;2022-07-23T06:07:59;30.30;99.90
51273;DHT22;37345;59.828;30.328;2022-07-23T06:10:30;30.40;99.90
51273;DHT22;37345;59.828;30.328;2022-07-23T06:12:56;30.00;99.90
51273;DHT22;37345;59.828;30.328;2022-07-23T06:15:21;30.20;99.90
51273;DHT22;37345;59.828;30.328;2022-07-23T06:17:47;30.10;99.90
51273;DHT22;37345;59.828;30.328;2022-07-23T06:20:13;29.20;99.90
51273;DHT22;37345;59.828;30.328;2022-07-23T06:22:39;29.20;99.90
51273;DHT22;37345;59.828;30.328;2022-07-23T06:25:06;29.80;99.90
51273;DHT22;37345;59.828;30.328;2022-07-23T06:27:32;30.70;99.90
51273;DHT22;37345;59.828;30.328;2022-07-23T06:29:57;29.10;99.90
51273;DHT22;37345;59.828;30.328;2022-07-23T06:32:23;29.90;99.90
51273;DHT22;37345;59.828;30.328;2022-07-23T06:34:49;30.30;99.90
51273;DHT22;37345;59.828;30.328;2022-07-23T06:37:15;29.70;99.90
51273;DHT22;37345;59.828;30.328;2022-07-23T06:39:44;30.20;99.90
51273;DHT22;37345;59.828;30.328;2022-07-23T06:42:10;30.30;99.90
51273;DHT22;37345;59.828;30.328;2022-07-23T06:44:37;30.20;99.90
51273;DHT22;37345;59.828;30.328;2022-07-23T06:47:03;30.70;99.90
51273;DHT22;37345;59.828;30.328;2022-07-23T06:49:29;31.20;99.90
51273;DHT22;37345;59.828;30.328;2022-07-23T06:51:55;31.40;99.90
51273;DHT22;37345;59.828;30.328;2022-07-23T06:54:23;31.10;99.90
51273;DHT22;37345;59.828;30.328;2022-07-23T06:56:52;31.00;99.90
51273;DHT22;37345;59.828;30.328;2022-07-23T07:02:49;32.40;99.90
51273;DHT22;37345;59.828;30.328;2022-07-23T07:05:22;31.60;99.90
51273;DHT22;37345;59.828;30.328;2022-07-23T07:07:55;33.00;99.90
51273;DHT22;37345;59.828;30.328;2022-07-23T07:10:23;30.60;99.90
51273;DHT22;37345;59.828;30.328;2022-07-23T07:12:52;31.80;99.90
51273;DHT22;37345;59.828;30.328;2022-07-23T07:15:18;32.50;99.90
51273;DHT22;37345;59.828;30.328;2022-07-23T07:17:58;32.50;99.90
51273;DHT22;37345;59.828;30.328;2022-07-23T07:20:27;33.70;99.90
51273;DHT22;37345;59.828;30.328;2022-07-23T07:23:02;31.50;99.90
51273;DHT22;37345;59.828;30.328;2022-07-23T07:25:36;31.70;99.90
51273;DHT22;37345;59.828;30.328;2022-07-23T07:28:02;32.10;99.90
51273;DHT22;37345;59.828;30.328;2022-07-23T07:30:30;31.80;99.90
51273;DHT22;37345;59.828;30.328;2022-07-23T07:32:58;33.30;99.90
51273;DHT22;37345;59.828;30.328;2022-07-23T07:35:25;31.90;99.90
51273;DHT22;37345;59.828;30.328;2022-07-23T07:37:53;32.10;99.90
51273;DHT22;37345;59.828;30.328;2022-07-23T07:40:21;31.80;99.90
51273;DHT22;37345;59.828;30.328;2022-07-23T07:42:52;32.30;99.90
51273;DHT22;37345;59.828;30.328;2022-07-23T07:45:20;32.40;99.90
51273;DHT22;37345;59.828;30.328;2022-07-23T07:47:47;32.10;99.90
51273;DHT22;37345;59.828;30.328;2022-07-23T07:50:13;32.10;99.90
51273;DHT22;37345;59.828;30.328;2022-07-23T07:52:39;32.00;99.90
51273;DHT22;37345;59.828;30.328;2022-07-23T07:55:06;31.40;99.90
51273;DHT22;37345;59.828;30.328;2022-07-23T07:57:33;31.90;99.90
51273;DHT22;37345;59.828;30.328;2022-07-23T07:59:58;32.00;99.90
51273;DHT22;37345;59.828;30.328;2022-07-23T08:02:25;32.10;99.90
51273;DHT22;37345;59.828;30.328;2022-07-23T08:04:51;31.90;99.90
51273;DHT22;37345;59.828;30.328;2022-07-23T08:07:17;32.50;99.90
51273;DHT22;37345;59.828;30.328;2022-07-23T08:09:43;32.60;99.90
51273;DHT22;37345;59.828;30.328;2022-07-23T08:12:12;32.60;99.90
51273;DHT22;37345;59.828;30.328;2022-07-23T08:14:37;33.00;99.90
51273;DHT22;37345;59.828;30.328;2022-07-23T08:17:03;33.00;99.90
51273;DHT22;37345;59.828;30.328;2022-07-23T08:19:29;32.50;99.90
51273;DHT22;37345;59.828;30.328;2022-07-23T08:21:55;33.30;99.90
51273;DHT22;37345;59.828;30.328;2022-07-23T08:24:21;32.70;99.90
51273;DHT22;37345;59.828;30.328;2022-07-23T08:26:47;33.00;99.90
51273;DHT22;37345;59.828;30.328;2022-07-23T08:29:15;32.70;99.90
51273;DHT22;37345;59.828;30.328;2022-07-23T08:31:41;32.60;99.90
51273;DHT22;37345;59.828;30.328;2022-07-23T08:34:07;33.10;99.90
51273;DHT22;37345;59.828;30.328;2022-07-23T08:36:32;33.20;99.90
51273;DHT22;37345;59.828;30.328;2022-07-23T08:38:59;33.60;99.90
51273;DHT22;37345;59.828;30.328;2022-07-23T08:41:25;34.00;99.90
51273;DHT22;37345;59.828;30.328;2022-07-23T08:43:51;33.40;99.90
51273;DHT22;37345;59.828;30.328;2022-07-23T08:46:19;33.40;99.90
51273;DHT22;37345;59.828;30.328;2022-07-23T08:48:48;32.90;99.90
51273;DHT22;37345;59.828;30.328;2022-07-23T08:51:14;32.70;99.90
51273;DHT22;37345;59.828;30.328;2022-07-23T08:53:40;33.10;99.90
51273;DHT22;37345;59.828;30.328;2022-07-23T08:56:07;33.40;99.90
51273;DHT22;37345;59.828;30.328;2022-07-23T08:58:33;33.50;99.90
51273;DHT22;37345;59.828;30.328;2022-07-23T09:01:00;33.30;99.90
51273;DHT22;37345;59.828;30.328;2022-07-23T09:03:33;33.00;99.90
51273;DHT22;37345;59.828;30.328;2022-07-23T09:06:00;33.00;99.90
51273;DHT22;37345;59.828;30.328;2022-07-23T09:11:04;33.30;99.40
51273;DHT22;37345;59.828;30.328;2022-07-23T09:13:51;33.70;99.00
51273;DHT22;37345;59.828;30.328;2022-07-23T09:16:23;33.70;98.90
51273;DHT22;37345;59.828;30.328;2022-07-23T09:18:54;33.70;98.60
51273;DHT22;37345;59.828;30.328;2022-07-23T09:21:29;33.50;98.70
51273;DHT22;37345;59.828;30.328;2022-07-23T09:24:05;33.40;98.70
51273;DHT22;37345;59.828;30.328;2022-07-23T09:26:42;32.20;99.90
51273;DHT22;37345;59.828;30.328;2022-07-23T09:29:19;33.20;99.20
51273;DHT22;37345;59.828;30.328;2022-07-23T09:36:44;33.30;96.40
51273;DHT22;37345;59.828;30.328;2022-07-23T09:39:12;32.70;96.90
51273;DHT22;37345;59.828;30.328;2022-07-23T09:41:43;32.90;96.30
51273;DHT22;37345;59.828;30.328;2022-07-23T09:44:15;32.70;96.10
51273;DHT22;37345;59.828;30.328;2022-07-23T09:46:46;32.20;97.10
51273;DHT22;37345;59.828;30.328;2022-07-23T09:49:18;32.30;97.40
51273;DHT22;37345;59.828;30.328;2022-07-23T09:51:47;32.60;96.60
51273;DHT22;37345;59.828;30.328;2022-07-23T09:54:30;31.50;97.20
51273;DHT22;37345;59.828;30.328;2022-07-23T09:57:00;31.70;97.40
51273;DHT22;37345;59.828;30.328;2022-07-23T09:59:29;31.60;97.40
51273;DHT22;37345;59.828;30.328;2022-07-23T10:01:57;32.40;97.90
51273;DHT22;37345;59.828;30.328;2022-07-23T10:04:26;32.80;97.40
51273;DHT22;37345;59.828;30.328;2022-07-23T10:06:55;33.20;96.80
51273;DHT22;37345;59.828;30.328;2022-07-23T10:09:26;33.10;97.00
51273;DHT22;37345;59.828;30.328;2022-07-23T10:11:54;32.60;97.30
51273;DHT22;37345;59.828;30.328;2022-07-23T10:14:22;32.90;97.40
51273;DHT22;37345;59.828;30.328;2022-07-23T10:16:49;32.60;97.70
51273;DHT22;37345;59.828;30.328;2022-07-23T10:19:15;32.00;97.90
51273;DHT22;37345;59.828;30.328;2022-07-23T10:21:46;32.20;98.10
51273;DHT22;37345;59.828;30.328;2022-07-23T10:30:03;31.90;99.90
51273;DHT22;37345;59.828;30.328;2022-07-23T11:18:57;31.60;99.90
51273;DHT22;37345;59.828;30.328;2022-07-23T12:04:54;27.00;99.90
51273;DHT22;37345;59.828;30.328;2022-07-23T12:07:39;26.80;99.90
51273;DHT22;37345;59.828;30.328;2022-07-23T12:10:17;26.30;99.90
51273;DHT22;37345;59.828;30.328;2022-07-23T12:13:02;25.60;99.90
51273;DHT22;37345;59.828;30.328;2022-07-23T12:15:33;24.90;99.90
51273;DHT22;37345;59.828;30.328;2022-07-23T12:18:03;24.80;99.90
51273;DHT22;37345;59.828;30.328;2022-07-23T12:20:32;24.40;99.90
51273;DHT22;37345;59.828;30.328;2022-07-23T12:33:13;25.40;99.90
51273;DHT22;37345;59.828;30.328;2022-07-23T12:35:42;25.90;99.90
51273;DHT22;37345;59.828;30.328;2022-07-23T12:38:11;26.00;99.90
51273;DHT22;37345;59.828;30.328;2022-07-23T12:40:58;26.60;99.90
51273;DHT22;37345;59.828;30.328;2022-07-23T12:43:38;26.90;99.90
51273;DHT22;37345;59.828;30.328;2022-07-23T12:51:20;26.70;99.90
51273;DHT22;37345;59.828;30.328;2022-07-23T12:53:52;27.00;99.90
51273;DHT22;37345;59.828;30.328;2022-07-23T12:56:20;27.10;99.90
51273;DHT22;37345;59.828;30.328;2022-07-23T12:58:56;26.80;99.90
51273;DHT22;37345;59.828;30.328;2022-07-23T13:04:18;26.70;99.90
51273;DHT22;37345;59.828;30.328;2022-07-23T13:06:47;26.30;99.90
51273;DHT22;37345;59.828;30.328;2022-07-23T13:09:26;26.20;99.90
51273;DHT22;37345;59.828;30.328;2022-07-23T13:11:54;26.00;99.90
51273;DHT22;37345;59.828;30.328;2022-07-23T13:16:48;25.00;99.90
51273;DHT22;37345;59.828;30.328;2022-07-23T13:19:14;24.40;99.90
51273;DHT22;37345;59.828;30.328;2022-07-23T13:33:51;24.30;99.90
51273;DHT22;37345;59.828;30.328;2022-07-23T13:36:17;23.90;99.90
51273;DHT22;37345;59.828;30.328;2022-07-23T13:41:09;23.40;99.90
51273;DHT22;37345;59.828;30.328;2022-07-23T13:43:35;23.30;99.90
51273;DHT22;37345;59.828;30.328;2022-07-23T13:46:02;23.50;99.90
51273;DHT22;37345;59.828;30.328;2022-07-23T13:48:30;23.40;99.90
51273;DHT22;37345;59.828;30.328;2022-07-23T13:50:56;23.30;99.90
51273;DHT22;37345;59.828;30.328;2022-07-23T13:53:23;23.30;99.90
51273;DHT22;37345;59.828;30.328;2022-07-23T14:00:51;23.70;99.90
51273;DHT22;37345;59.828;30.328;2022-07-23T14:03:23;23.60;99.90
51273;DHT22;37345;59.828;30.328;2022-07-23T14:05:50;23.60;99.90
51273;DHT22;37345;59.828;30.328;2022-07-23T14:08:16;24.00;99.90
51273;DHT22;37345;59.828;30.328;2022-07-23T14:10:42;24.10;99.90
51273;DHT22;37345;59.828;30.328;2022-07-23T14:13:08;24.10;99.90
51273;DHT22;37345;59.828;30.328;2022-07-23T14:15:34;24.30;99.90
51273;DHT22;37345;59.828;30.328;2022-07-23T14:17:59;24.50;99.90
51273;DHT22;37345;59.828;30.328;2022-07-23T14:20:25;24.30;99.90
51273;DHT22;37345;59.828;30.328;2022-07-23T14:22:52;24.30;99.90
51273;DHT22;37345;59.828;30.328;2022-07-23T14:25:18;24.80;99.90
51273;DHT22;37345;59.828;30.328;2022-07-23T14:27:45;25.00;99.90
51273;DHT22;37345;59.828;30.328;2022-07-23T14:30:11;25.40;99.90
51273;DHT22;37345;59.828;30.328;2022-07-23T14:32:38;25.70;99.90
51273;DHT22;37345;59.828;30.328;2022-07-23T14:35:04;25.80;99.90
51273;DHT22;37345;59.828;30.328;2022-07-23T14:37:31;25.90;99.90
51273;DHT22;37345;59.828;30.328;2022-07-23T14:39:56;25.90;99.90
51273;DHT22;37345;59.828;30.328;2022-07-23T14:42:26;26.00;99.90
51273;DHT22;37345;59.828;30.328;2022-07-23T14:45:00;26.00;99.90
51273;DHT22;37345;59.828;30.328;2022-07-23T14:47:26;25.80;99.90
51273;DHT22;37345;59.828;30.328;2022-07-23T14:49:52;25.70;99.90
51273;DHT22;37345;59.828;30.328;2022-07-23T14:52:19;25.60;99.90
51273;DHT22;37345;59.828;30.328;2022-07-23T14:54:44;25.50;99.90
51273;DHT22;37345;59.828;30.328;2022-07-23T14:57:10;25.20;99.90
51273;DHT22;37345;59.828;30.328;2022-07-23T14:59:36;25.40;99.90
51273;DHT22;37345;59.828;30.328;2022-07-23T15:02:02;25.20;99.90
51273;DHT22;37345;59.828;30.328;2022-07-23T15:04:28;25.20;99.90
51273;DHT22;37345;59.828;30.328;2022-07-23T15:06:54;25.00;99.90
51273;DHT22;37345;59.828;30.328;2022-07-23T15:09:20;25.00;99.90
51273;DHT22;37345;59.828;30.328;2022-07-23T15:11:46;25.30;99.90
51273;DHT22;37345;59.828;30.328;2022-07-23T15:14:12;25.20;99.90
51273;DHT22;37345;59.828;30.328;2022-07-23T15:16:38;25.20;99.90
51273;DHT22;37345;59.828;30.328;2022-07-23T15:19:04;25.80;99.90
51273;DHT22;37345;59.828;30.328;2022-07-23T15:21:30;26.00;99.90
51273;DHT22;37345;59.828;30.328;2022-07-23T15:23:57;26.10;99.90
51273;DHT22;37345;59.828;30.328;2022-07-23T15:26:27;26.20;99.90
51273;DHT22;37345;59.828;30.328;2022-07-23T15:28:53;26.30;99.90
51273;DHT22;37345;59.828;30.328;2022-07-23T15:31:18;26.40;99.90
51273;DHT22;37345;59.828;30.328;2022-07-23T15:33:44;26.50;99.90
51273;DHT22;37345;59.828;30.328;2022-07-23T15:36:10;26.30;99.90
51273;DHT22;37345;59.828;30.328;2022-07-23T15:38:36;25.80;99.90
51273;DHT22;37345;59.828;30.328;2022-07-23T15:41:02;25.70;99.90
51273;DHT22;37345;59.828;30.328;2022-07-23T15:43:30;26.00;99.90
51273;DHT22;37345;59.828;30.328;2022-07-23T15:45:56;26.30;99.90
51273;DHT22;37345;59.828;30.328;2022-07-23T15:48:22;26.00;99.90
51273;DHT22;37345;59.828;30.328;2022-07-23T15:50:48;26.40;99.90
51273;DHT22;37345;59.828;30.328;2022-07-23T15:53:14;26.50;99.90
51273;DHT22;37345;59.828;30.328;2022-07-23T15:55:40;26.60;99.90
51273;DHT22;37345;59.828;30.328;2022-07-23T15:58:06;26.60;99.90
51273;DHT22;37345;59.828;30.328;2022-07-23T16:00:33;26.70;99.90
51273;DHT22;37345;59.828;30.328;2022-07-23T16:02:59;26.70;99.90
51273;DHT22;37345;59.828;30.328;2022-07-23T16:05:25;26.80;99.90
51273;DHT22;37345;59.828;30.328;2022-07-23T16:08:02;26.30;99.90
51273;DHT22;37345;59.828;30.328;2022-07-23T16:10:28;25.70;99.90
51273;DHT22;37345;59.828;30.328;2022-07-23T16:12:54;25.70;99.90
51273;DHT22;37345;59.828;30.328;2022-07-23T16:15:21;25.60;99.90
51273;DHT22;37345;59.828;30.328;2022-07-23T16:17:47;25.40;99.90
51273;DHT22;37345;59.828;30.328;2022-07-23T16:20:13;25.50;99.90
51273;DHT22;37345;59.828;30.328;2022-07-23T16:22:39;25.40;99.90
51273;DHT22;37345;59.828;30.328;2022-07-23T16:25:06;25.00;99.90
51273;DHT22;37345;59.828;30.328;2022-07-23T16:27:33;24.90;99.90
51273;DHT22;37345;59.828;30.328;2022-07-23T16:29:59;24.90;99.90
51273;DHT22;37345;59.828;30.328;2022-07-23T16:32:25;24.80;99.90
51273;DHT22;37345;59.828;30.328;2022-07-23T16:34:51;24.60;99.90
51273;DHT22;37345;59.828;30.328;2022-07-23T16:37:17;24.60;99.90
51273;DHT22;37345;59.828;30.328;2022-07-23T16:39:43;24.60;99.90
51273;DHT22;37345;59.828;30.328;2022-07-23T16:42:09;24.50;99.90
51273;DHT22;37345;59.828;30.328;2022-07-23T16:44:35;24.60;99.90
51273;DHT22;37345;59.828;30.328;2022-07-23T16:47:01;24.50;99.90
51273;DHT22;37345;59.828;30.328;2022-07-23T16:49:29;24.40;99.90
51273;DHT22;37345;59.828;30.328;2022-07-23T16:51:58;24.40;99.90
51273;DHT22;37345;59.828;30.328;2022-07-23T16:54:24;24.10;99.90
51273;DHT22;37345;59.828;30.328;2022-07-23T16:56:50;24.10;99.90
51273;DHT22;37345;59.828;30.328;2022-07-23T16:59:15;23.90;99.90
51273;DHT22;37345;59.828;30.328;2022-07-23T17:01:41;24.10;99.90
51273;DHT22;37345;59.828;30.328;2022-07-23T17:04:07;23.70;99.90
51273;DHT22;37345;59.828;30.328;2022-07-23T17:06:34;23.80;99.90
51273;DHT22;37345;59.828;30.328;2022-07-23T17:09:00;23.70;99.90
51273;DHT22;37345;59.828;30.328;2022-07-23T17:11:26;23.60;99.90
51273;DHT22;37345;59.828;30.328;2022-07-23T17:16:18;23.20;99.90
51273;DHT22;37345;59.828;30.328;2022-07-23T17:18:44;23.00;99.90
51273;DHT22;37345;59.828;30.328;2022-07-23T17:21:10;22.90;99.90
51273;DHT22;37345;59.828;30.328;2022-07-23T17:23:37;23.10;99.90
51273;DHT22;37345;59.828;30.328;2022-07-23T17:26:03;23.00;99.90
51273;DHT22;37345;59.828;30.328;2022-07-23T17:28:29;22.90;99.90
51273;DHT22;37345;59.828;30.328;2022-07-23T17:30:55;22.80;99.90
51273;DHT22;37345;59.828;30.328;2022-07-23T17:33:21;22.70;99.90
51273;DHT22;37345;59.828;30.328;2022-07-23T17:35:47;22.40;99.90
51273;DHT22;37345;59.828;30.328;2022-07-23T17:38:18;22.20;99.90
51273;DHT22;37345;59.828;30.328;2022-07-23T17:40:43;22.20;99.90
51273;DHT22;37345;59.828;30.328;2022-07-23T17:43:09;22.10;99.90
51273;DHT22;37345;59.828;30.328;2022-07-23T17:45:35;21.90;99.90
51273;DHT22;37345;59.828;30.328;2022-07-23T17:48:04;21.90;99.90
51273;DHT22;37345;59.828;30.328;2022-07-23T17:50:30;21.90;99.90